createdAt,value
2022-09-03T00:00:53.172Z,60.30
2022-09-03T00:03:23.308Z,60.41
2022-09-03T00:05:51.795Z,60.45
2022-09-03T00:08:21.560Z,60.12
2022-09-03T00:10:59.958Z,60.19
2022-09-03T00:13:35.390Z,59.99
2022-09-03T00:16:03.909Z,60.50
2022-09-03T00:18:31.846Z,60.10
2022-09-03T00:21:08.533Z,60.49
2022-09-03T00:23:38.199Z,60.40
2022-09-03T00:26:11.579Z,60.61
2022-09-03T00:28:41.982Z,61.02
2022-09-03T00:31:21.373Z,60.80
2022-09-03T00:33:49.375Z,60.34
2022-09-03T00:36:18.240Z,60.73
2022-09-03T00:38:45.731Z,60.65
2022-09-03T00:41:23.039Z,60.94
2022-09-03T00:43:59.645Z,60.47
2022-09-03T00:46:41.952Z,60.71
2022-09-03T00:49:09.395Z,60.59
2022-09-03T00:51:59.437Z,60.97
2022-09-03T00:54:33.216Z,61.10
2022-09-03T00:57:15.451Z,61.38
2022-09-03T01:00:09.086Z,60.83
2022-09-03T01:02:57.546Z,61.38
2022-09-03T01:05:40.584Z,61.63
2022-09-03T01:08:33.797Z,61.03
2022-09-03T01:11:26.240Z,61.51
2022-09-03T01:14:02.654Z,60.92
2022-09-03T01:16:36.211Z,61.88
2022-09-03T01:19:06.196Z,63.28
2022-09-03T01:21:54.058Z,62.82
2022-09-03T01:24:31.788Z,61.91
2022-09-03T01:27:20.814Z,62.09
2022-09-03T01:29:49.141Z,61.64
2022-09-03T01:32:21.475Z,61.90
2022-09-03T01:34:55.542Z,61.58
2022-09-03T01:37:30.192Z,61.51
2022-09-03T01:40:08.517Z,61.28
2022-09-03T01:42:41.891Z,61.15
2022-09-03T01:45:10.387Z,61.38
2022-09-03T01:47:40.690Z,61.21
2022-09-03T01:50:27.194Z,61.37
2022-09-03T01:52:59.756Z,61.48
2022-09-03T01:55:34.816Z,62.31
2022-09-03T01:58:20.151Z,62.25
2022-09-03T02:00:50.052Z,61.98
2022-09-03T02:03:18.169Z,62.90
2022-09-03T02:05:48.012Z,63.50
2022-09-03T02:08:15.513Z,62.98
2022-09-03T02:10:43.168Z,62.06
2022-09-03T02:13:14.052Z,62.16
2022-09-03T02:15:42.198Z,62.14
2022-09-03T02:18:42.151Z,62.60
2022-09-03T02:21:10.806Z,61.92
2022-09-03T02:23:39.549Z,62.46
2022-09-03T02:26:07.231Z,62.42
2022-09-03T02:28:34.942Z,62.21
2022-09-03T02:31:02.908Z,62.03
2022-09-03T02:33:31.465Z,62.29
2022-09-03T02:35:59.276Z,62.16
2022-09-03T02:38:26.672Z,61.97
2022-09-03T02:40:54.581Z,61.59
2022-09-03T02:43:25.953Z,61.34
2022-09-03T02:45:54.825Z,61.40
2022-09-03T02:48:23.641Z,61.47
2022-09-03T02:50:51.110Z,61.55
2022-09-03T02:53:18.674Z,61.72
2022-09-03T02:55:46.632Z,61.74
2022-09-03T02:58:13.825Z,61.33
2022-09-03T03:00:41.141Z,61.58
2022-09-03T03:03:08.830Z,62.16
2022-09-03T03:05:41.496Z,61.72
2022-09-03T03:08:09.492Z,61.83
2022-09-03T03:10:38.192Z,61.81
2022-09-03T03:13:05.597Z,62.34
2022-09-03T03:15:33.257Z,62.43
2022-09-03T03:18:00.641Z,61.53
2022-09-03T03:20:28.085Z,61.66
2022-09-03T03:22:56.135Z,62.11
2022-09-03T03:25:23.523Z,62.78
2022-09-03T03:27:50.944Z,62.55
2022-09-03T03:30:19.402Z,62.34
2022-09-03T03:32:47.329Z,62.25
2022-09-03T03:35:15.001Z,62.41
2022-09-03T03:37:43.169Z,62.66
2022-09-03T03:40:10.826Z,62.67
2022-09-03T03:42:38.083Z,62.64
2022-09-03T03:45:06.536Z,62.26
2022-09-03T03:47:33.955Z,62.39
2022-09-03T03:50:01.309Z,62.29
2022-09-03T03:52:28.969Z,62.77
2022-09-03T03:54:57.313Z,62.65
2022-09-03T03:57:24.674Z,62.35
2022-09-03T03:59:52.224Z,62.51
2022-09-03T04:02:21.656Z,62.73
2022-09-03T04:04:49.332Z,62.66
2022-09-03T04:07:16.712Z,62.85
2022-09-03T04:09:44.114Z,62.42
2022-09-03T04:12:11.941Z,62.95
2022-09-03T04:14:39.687Z,63.05
2022-09-03T04:17:06.932Z,62.55
2022-09-03T04:19:34.508Z,62.80
2022-09-03T04:22:02.217Z,62.96
2022-09-03T04:24:30.067Z,62.75
2022-09-03T04:26:57.849Z,62.25
2022-09-03T04:29:25.811Z,63.77
2022-09-03T04:32:11.997Z,64.14
2022-09-03T04:34:39.545Z,64.17
2022-09-03T04:37:12.664Z,64.51
2022-09-03T04:39:40.545Z,64.05
2022-09-03T04:42:07.964Z,64.19
2022-09-03T04:44:38.403Z,64.22
2022-09-03T04:47:06.444Z,64.55
2022-09-03T04:49:34.640Z,64.04
2022-09-03T04:52:02.992Z,64.34
2022-09-03T04:54:30.611Z,64.09
2022-09-03T04:56:58.057Z,64.40
2022-09-03T04:59:25.679Z,63.94
2022-09-03T05:01:53.309Z,64.00
2022-09-03T05:04:20.600Z,63.66
2022-09-03T05:06:48.287Z,63.89
2022-09-03T05:09:15.999Z,63.71
2022-09-03T05:11:43.408Z,63.72
2022-09-03T05:14:12.724Z,62.85
2022-09-03T05:16:40.559Z,63.45
2022-09-03T05:19:08.544Z,63.56
2022-09-03T05:21:36.216Z,62.79
2022-09-03T05:24:04.224Z,62.23
2022-09-03T05:26:33.603Z,61.99
2022-09-03T05:29:01.751Z,61.96
2022-09-03T05:31:31.628Z,62.12
2022-09-03T05:34:00.604Z,61.75
2022-09-03T05:36:29.368Z,61.53
2022-09-03T05:38:58.487Z,61.25
2022-09-03T05:41:26.296Z,61.41
2022-09-03T05:43:58.804Z,61.26
2022-09-03T05:46:31.790Z,61.27
2022-09-03T05:49:03.346Z,61.04
2022-09-03T05:51:31.261Z,60.36
2022-09-03T05:53:59.047Z,60.37
2022-09-03T05:56:27.085Z,60.14
2022-09-03T05:58:56.401Z,60.31
2022-09-03T06:01:24.861Z,59.37
2022-09-03T06:03:56.700Z,58.46
2022-09-03T06:06:25.653Z,58.72
2022-09-03T06:08:58.318Z,57.20
2022-09-03T06:11:29.765Z,58.81
2022-09-03T06:13:57.748Z,58.79
2022-09-03T06:16:30.744Z,57.98
2022-09-03T06:19:00.011Z,56.97
2022-09-03T06:21:27.740Z,55.61
2022-09-03T06:23:59.479Z,56.38
2022-09-03T06:26:30.970Z,56.55
2022-09-03T06:28:58.463Z,56.61
2022-09-03T06:31:26.070Z,54.87
2022-09-03T06:33:54.669Z,54.42
2022-09-03T06:36:22.819Z,55.38
2022-09-03T06:38:54.186Z,52.60
2022-09-03T06:41:25.256Z,52.95
2022-09-03T06:43:53.478Z,53.65
2022-09-03T06:46:21.902Z,54.40
2022-09-03T06:48:51.844Z,53.73
2022-09-03T06:51:23.083Z,54.21
2022-09-03T06:53:52.592Z,52.86
2022-09-03T06:56:27.649Z,53.31
2022-09-03T06:58:56.139Z,53.38
2022-09-03T07:01:26.057Z,51.55
2022-09-03T07:03:56.897Z,52.39
2022-09-03T07:06:39.490Z,51.20
2022-09-03T07:09:07.232Z,50.11
2022-09-03T07:11:36.069Z,50.70
2022-09-03T07:14:04.602Z,48.39
2022-09-03T07:16:36.090Z,49.24
2022-09-03T07:19:04.794Z,47.78
2022-09-03T07:21:34.121Z,47.50
2022-09-03T07:24:10.917Z,47.84
2022-09-03T07:26:39.654Z,46.82
2022-09-03T07:29:07.949Z,46.78
2022-09-03T07:31:36.969Z,46.79
2022-09-03T07:34:09.952Z,46.20
2022-09-03T07:36:40.154Z,45.46
2022-09-03T07:39:09.424Z,44.71
2022-09-03T07:41:37.472Z,45.10
2022-09-03T07:44:07.947Z,46.48
2022-09-03T07:46:38.136Z,44.86
2022-09-03T07:49:06.320Z,44.53
2022-09-03T07:51:35.731Z,45.12
2022-09-03T07:54:05.784Z,45.20
2022-09-03T07:56:35.095Z,44.74
2022-09-03T07:59:03.237Z,44.38
2022-09-03T08:01:32.849Z,42.58
2022-09-03T08:04:01.455Z,43.55
2022-09-03T08:06:29.499Z,43.66
2022-09-03T08:09:04.906Z,44.68
2022-09-03T08:11:35.170Z,44.06
2022-09-03T08:14:06.365Z,44.15
2022-09-03T08:16:35.787Z,43.35
2022-09-03T08:19:03.293Z,43.87
2022-09-03T08:21:31.321Z,42.74
2022-09-03T08:24:02.772Z,44.37
2022-09-03T08:26:34.669Z,43.20
2022-09-03T08:29:03.000Z,44.13
2022-09-03T08:31:30.659Z,43.62
2022-09-03T08:33:58.912Z,43.00
2022-09-03T08:36:30.549Z,42.28
2022-09-03T08:38:59.485Z,42.10
2022-09-03T08:41:37.060Z,43.21
2022-09-03T08:44:13.763Z,40.73
2022-09-03T08:47:00.037Z,42.23
2022-09-03T08:49:34.401Z,41.38
2022-09-03T08:52:03.287Z,41.54
2022-09-03T08:54:34.766Z,41.52
2022-09-03T08:57:07.061Z,40.21
2022-09-03T08:59:34.353Z,39.79
2022-09-03T09:02:10.557Z,40.48
2022-09-03T09:04:52.994Z,39.33
2022-09-03T09:07:23.787Z,37.65
2022-09-03T09:09:58.950Z,39.45
2022-09-03T09:12:45.614Z,38.21
2022-09-03T09:15:28.935Z,39.53
2022-09-03T09:18:10.454Z,38.75
2022-09-03T09:20:41.721Z,39.79
2022-09-03T09:23:11.433Z,38.07
2022-09-03T09:25:44.411Z,40.37
2022-09-03T09:28:19.745Z,37.42
2022-09-03T09:30:48.788Z,38.08
2022-09-03T09:33:16.749Z,37.83
2022-09-03T09:35:44.974Z,36.31
2022-09-03T09:38:13.999Z,36.13
2022-09-03T09:40:44.996Z,37.48
2022-09-03T09:43:16.821Z,37.96
2022-09-03T09:45:45.881Z,37.82
2022-09-03T09:48:23.806Z,35.78
2022-09-03T09:50:55.362Z,38.40
2022-09-03T09:53:23.208Z,36.27
2022-09-03T09:55:54.793Z,37.76
2022-09-03T09:58:23.641Z,37.73
2022-09-03T10:00:56.907Z,36.53
2022-09-03T10:03:29.968Z,36.12
2022-09-03T10:05:58.984Z,35.60
2022-09-03T10:08:26.637Z,34.85
2022-09-03T10:10:54.239Z,37.77
2022-09-03T10:13:23.110Z,34.08
2022-09-03T10:16:03.554Z,35.47
2022-09-03T10:18:39.489Z,34.36
2022-09-03T10:21:11.203Z,34.74
2022-09-03T10:23:42.279Z,34.17
2022-09-03T10:26:10.517Z,34.35
2022-09-03T10:28:41.644Z,36.06
2022-09-03T10:31:29.420Z,35.87
2022-09-03T10:34:06.949Z,35.90
2022-09-03T10:36:37.083Z,33.50
2022-09-03T10:39:23.306Z,32.14
2022-09-03T10:42:11.178Z,32.87
2022-09-03T10:44:50.617Z,32.54
2022-09-03T10:47:46.868Z,33.23
2022-09-03T10:50:49.835Z,32.18
2022-09-03T10:53:57.365Z,31.04
2022-09-03T10:56:33.990Z,31.30
2022-09-03T10:59:10.869Z,30.66
2022-09-03T11:01:38.340Z,31.08
2022-09-03T11:04:39.267Z,31.12
2022-09-03T11:07:30.524Z,32.43
2022-09-03T11:10:11.766Z,31.91
2022-09-03T11:12:41.143Z,30.42
2022-09-03T11:15:40.278Z,29.28
2022-09-03T11:18:11.442Z,32.24
2022-09-03T11:20:50.811Z,31.64
2022-09-03T11:23:40.685Z,31.28
2022-09-03T11:26:12.845Z,28.89
2022-09-03T11:28:45.434Z,31.89
2022-09-03T11:31:32.780Z,30.10
2022-09-03T11:34:23.279Z,29.78
2022-09-03T11:36:51.334Z,27.57
2022-09-03T11:39:34.451Z,25.36
2022-09-03T11:42:09.168Z,28.86
2022-09-03T11:44:37.901Z,29.90
2022-09-03T11:47:23.960Z,30.49
2022-09-03T11:49:52.653Z,27.77
2022-09-03T11:52:27.566Z,27.77
2022-09-03T11:54:55.486Z,30.30
2022-09-03T11:57:30.056Z,30.06
2022-09-03T12:00:14.319Z,30.52
2022-09-03T12:02:45.352Z,31.22
2022-09-03T12:05:27.921Z,30.75
2022-09-03T12:08:32.471Z,30.63
2022-09-03T12:11:20.655Z,28.49
2022-09-03T12:14:20.615Z,26.44
2022-09-03T12:17:08.124Z,29.52
2022-09-03T12:19:56.057Z,28.89
2022-09-03T12:22:43.481Z,29.56
2022-09-03T12:25:49.647Z,27.83
2022-09-03T12:28:28.526Z,28.52
2022-09-03T12:31:21.643Z,28.65
2022-09-03T12:34:01.853Z,28.80
2022-09-03T12:36:56.481Z,30.71
2022-09-03T12:46:33.421Z,29.89
2022-09-03T12:52:01.816Z,31.08
2022-09-03T12:54:32.298Z,30.88
2022-09-03T12:56:59.726Z,32.09
2022-09-03T12:59:27.936Z,30.44
2022-09-03T13:01:56.503Z,31.02
2022-09-03T13:04:26.887Z,30.69
2022-09-03T13:07:01.368Z,30.26
2022-09-03T13:09:30.110Z,31.05
2022-09-03T13:16:15.636Z,29.18
2022-09-03T13:18:43.341Z,29.94
2022-09-03T13:21:33.945Z,29.79
2022-09-03T13:24:04.736Z,28.19
2022-09-03T13:26:44.608Z,31.07
2022-09-03T13:29:30.975Z,31.24
2022-09-03T13:32:17.247Z,30.51
2022-09-03T13:34:52.507Z,32.05
2022-09-03T13:37:27.716Z,31.13
2022-09-03T13:40:00.093Z,32.96
2022-09-03T13:42:31.384Z,32.46
2022-09-03T13:45:00.509Z,31.65
2022-09-03T13:48:09.595Z,33.05
2022-09-03T13:50:59.839Z,31.78
2022-09-03T13:53:32.404Z,31.10
2022-09-03T13:56:05.283Z,31.80
2022-09-03T13:58:42.502Z,30.66
2022-09-03T14:01:13.468Z,30.74
2022-09-03T14:03:48.801Z,32.73
2022-09-03T14:06:35.369Z,31.57
2022-09-03T14:09:02.867Z,30.15
2022-09-03T14:11:30.094Z,29.94
2022-09-03T14:13:57.300Z,31.00
2022-09-03T14:16:31.074Z,30.63
2022-09-03T14:19:13.187Z,30.81
2022-09-03T14:21:45.577Z,30.62
2022-09-03T14:24:36.867Z,29.44
2022-09-03T14:27:04.934Z,31.29
2022-09-03T14:29:36.365Z,32.97
2022-09-03T14:32:06.936Z,31.26
2022-09-03T14:34:54.934Z,31.21
2022-09-03T14:37:34.496Z,30.26
2022-09-03T14:40:13.508Z,31.72
2022-09-03T14:42:59.790Z,32.04
2022-09-03T14:45:46.327Z,32.74
2022-09-03T14:48:32.606Z,31.92
2022-09-03T14:51:03.251Z,30.64
2022-09-03T14:53:45.822Z,30.12
2022-09-03T14:56:25.329Z,30.45
2022-09-03T14:59:04.843Z,31.16
2022-09-03T15:01:38.739Z,31.14
2022-09-03T15:04:09.840Z,31.47
2022-09-03T15:06:43.646Z,31.35
2022-09-03T15:09:14.108Z,31.16
2022-09-03T15:11:53.002Z,30.84
2022-09-03T15:14:22.649Z,30.95
2022-09-03T15:16:55.800Z,30.91
2022-09-03T15:19:35.919Z,31.69
2022-09-03T15:22:22.399Z,31.03
2022-09-03T15:24:49.624Z,31.13
2022-09-03T15:27:37.480Z,31.82
2022-09-03T15:30:12.146Z,31.68
2022-09-03T15:32:50.582Z,31.83
2022-09-03T15:35:33.767Z,32.53
2022-09-03T15:38:05.828Z,33.15
2022-09-03T15:40:41.945Z,33.33
2022-09-03T15:43:11.342Z,33.32
2022-09-03T15:45:47.667Z,32.55
2022-09-03T15:48:21.715Z,32.89
2022-09-03T15:51:18.438Z,32.60
2022-09-03T15:53:50.195Z,32.38
2022-09-03T15:56:39.234Z,33.50
2022-09-03T15:59:18.549Z,32.59
2022-09-03T16:02:04.381Z,32.02
2022-09-03T16:04:39.723Z,33.18
2022-09-03T16:07:14.946Z,33.57
2022-09-03T16:10:07.627Z,33.38
2022-09-03T16:12:48.038Z,34.79
2022-09-03T16:15:16.561Z,35.23
2022-09-03T16:17:52.697Z,35.69
2022-09-03T16:20:31.580Z,35.40
2022-09-03T16:23:13.051Z,35.93
2022-09-03T16:25:46.599Z,35.28
2022-09-03T16:28:16.274Z,35.99
2022-09-03T16:30:47.215Z,35.20
2022-09-03T16:33:22.202Z,35.31
2022-09-03T16:36:08.613Z,35.63
2022-09-03T16:38:53.936Z,35.66
2022-09-03T16:41:27.641Z,35.36
2022-09-03T16:44:10.046Z,35.43
2022-09-03T16:46:44.469Z,35.36
2022-09-03T16:49:33.694Z,35.35
2022-09-03T16:52:17.546Z,35.65
2022-09-03T16:54:55.701Z,37.23
2022-09-03T16:57:33.269Z,37.36
2022-09-03T17:00:02.215Z,38.20
2022-09-03T17:02:45.739Z,38.62
2022-09-03T17:05:15.687Z,39.08
2022-09-03T17:07:50.161Z,39.98
2022-09-03T17:10:21.686Z,40.16
2022-09-03T17:12:49.214Z,40.33
2022-09-03T17:15:28.949Z,40.84
2022-09-03T17:18:08.721Z,41.15
2022-09-03T17:20:35.959Z,41.49
2022-09-03T17:23:07.136Z,41.97
2022-09-03T17:25:41.029Z,42.42
2022-09-03T17:28:25.476Z,42.25
2022-09-03T17:30:56.406Z,43.56
2022-09-03T17:33:34.676Z,43.49
2022-09-03T17:36:12.547Z,43.28
2022-09-03T17:38:43.146Z,43.21
2022-09-03T17:41:27.035Z,44.19
2022-09-03T17:44:08.919Z,44.20
2022-09-03T17:46:43.971Z,44.37
2022-09-03T17:49:14.714Z,44.77
2022-09-03T17:51:46.329Z,44.71
2022-09-03T17:54:18.420Z,45.09
2022-09-03T17:56:57.399Z,45.35
2022-09-03T17:59:30.029Z,45.42
2022-09-03T18:02:26.581Z,46.07
2022-09-03T18:05:01.778Z,45.78
2022-09-03T18:07:38.247Z,46.00
2022-09-03T18:10:09.162Z,46.50
2022-09-03T18:12:39.858Z,47.13
2022-09-03T18:15:28.612Z,47.24
2022-09-03T18:17:59.916Z,48.43
2022-09-03T18:20:55.085Z,48.39
2022-09-03T18:23:51.261Z,48.01
2022-09-03T18:26:41.980Z,48.38
2022-09-03T18:30:00.865Z,48.56
2022-09-03T18:32:48.195Z,48.95
2022-09-03T18:35:34.935Z,49.39
2022-09-03T18:38:22.043Z,49.36
2022-09-03T18:41:14.207Z,50.04
2022-09-03T18:44:15.868Z,49.35
2022-09-03T18:50:29.563Z,50.33
2022-09-03T18:53:19.927Z,50.22
2022-09-03T18:56:35.922Z,50.87
2022-09-03T18:59:21.888Z,50.79
2022-09-03T19:02:08.394Z,50.96
2022-09-03T19:05:08.809Z,50.84
2022-09-03T19:08:06.465Z,51.31
2022-09-03T19:11:11.125Z,51.26
2022-09-03T19:13:57.925Z,51.54
2022-09-03T19:16:56.705Z,51.51
2022-09-03T19:19:46.044Z,51.67
2022-09-03T19:22:32.418Z,52.05
2022-09-03T19:25:21.716Z,52.25
2022-09-03T19:28:27.070Z,51.89
2022-09-03T19:31:20.657Z,51.77
2022-09-03T19:34:22.155Z,52.29
2022-09-03T19:37:23.313Z,52.34
2022-09-03T19:40:09.454Z,52.90
2022-09-03T19:42:56.669Z,52.56
2022-09-03T19:45:42.595Z,53.17
2022-09-03T19:48:30.222Z,53.56
2022-09-03T19:51:28.799Z,53.32
2022-09-03T19:54:18.144Z,53.69
2022-09-03T19:57:04.340Z,54.05
2022-09-03T19:59:52.812Z,54.50
2022-09-03T20:02:38.832Z,54.34
2022-09-03T20:05:26.519Z,54.61
2022-09-03T20:08:13.230Z,54.97
2022-09-03T20:10:41.619Z,54.74
2022-09-03T20:13:09.880Z,54.80
2022-09-03T20:15:49.717Z,55.58
2022-09-03T20:18:20.946Z,55.44
2022-09-03T20:20:48.242Z,55.24
2022-09-03T20:23:30.482Z,55.96
2022-09-03T20:26:21.398Z,55.95
2022-09-03T20:28:49.228Z,55.77
2022-09-03T20:31:17.774Z,56.01
2022-09-03T20:33:48.368Z,56.70
2022-09-03T20:36:22.065Z,55.95
2022-09-03T20:39:08.568Z,56.76
2022-09-03T20:41:54.828Z,56.46
2022-09-03T20:44:28.774Z,56.17
2022-09-03T20:46:56.042Z,56.85
2022-09-03T20:49:42.658Z,56.88
2022-09-03T20:52:13.638Z,56.92
2022-09-03T20:54:44.743Z,57.59
2022-09-03T20:57:19.047Z,57.08
2022-09-03T21:00:05.110Z,57.56
2022-09-03T21:02:48.727Z,57.71
2022-09-03T21:05:17.955Z,57.70
2022-09-03T21:07:48.848Z,57.88
2022-09-03T21:10:22.435Z,58.03
2022-09-03T21:12:57.694Z,57.67
2022-09-03T21:15:29.058Z,58.42
2022-09-03T21:18:12.231Z,58.28
2022-09-03T21:21:15.413Z,58.94
2022-09-03T21:23:50.118Z,58.85
2022-09-03T21:26:17.815Z,58.97
2022-09-03T21:28:45.966Z,58.21
2022-09-03T21:31:19.252Z,58.65
2022-09-03T21:33:49.035Z,58.74
2022-09-03T21:36:17.447Z,58.23
2022-09-03T21:38:45.844Z,58.34
2022-09-03T21:41:40.423Z,58.22
2022-09-03T21:44:30.644Z,58.01
2022-09-03T21:46:59.291Z,57.89
2022-09-03T21:49:29.328Z,58.60
2022-09-03T21:51:57.616Z,58.49
2022-09-03T21:54:25.217Z,58.33
2022-09-03T21:57:12.490Z,59.47
2022-09-03T21:59:46.377Z,58.70
2022-09-03T22:02:17.224Z,58.82
2022-09-03T22:04:44.838Z,58.94
2022-09-03T22:07:31.201Z,59.14
2022-09-03T22:09:58.838Z,58.80
2022-09-03T22:12:26.137Z,59.62
2022-09-03T22:14:53.480Z,59.25
2022-09-03T22:17:34.431Z,59.40
2022-09-03T22:20:03.659Z,59.44
2022-09-03T22:22:43.972Z,60.05
2022-09-03T22:25:19.778Z,60.04
2022-09-03T22:27:50.062Z,60.03
2022-09-03T22:30:21.747Z,59.69
2022-09-03T22:33:05.743Z,60.46
2022-09-03T22:35:51.984Z,60.58
2022-09-03T22:38:19.741Z,60.54
2022-09-03T22:41:00.341Z,60.58
2022-09-03T22:43:27.851Z,60.27
2022-09-03T22:46:09.244Z,59.87
2022-09-03T22:48:41.509Z,60.07
2022-09-03T22:51:09.298Z,60.25
2022-09-03T22:53:39.884Z,60.00
2022-09-03T22:56:08.424Z,60.64
2022-09-03T22:58:41.846Z,59.80
2022-09-03T23:01:30.764Z,60.33
2022-09-03T23:04:18.373Z,60.13
2022-09-03T23:06:53.354Z,60.48
2022-09-03T23:09:25.310Z,60.51
2022-09-03T23:12:02.967Z,60.06
2022-09-03T23:14:51.412Z,60.13
2022-09-03T23:22:31.816Z,60.71
2022-09-03T23:25:19.648Z,60.29
2022-09-03T23:27:53.696Z,60.47
2022-09-03T23:30:21.476Z,60.27
2022-09-03T23:32:49.695Z,60.54
2022-09-03T23:35:18.206Z,60.62
2022-09-03T23:38:04.508Z,61.47
2022-09-03T23:40:46.186Z,61.06
2022-09-03T23:43:13.488Z,61.46
2022-09-03T23:45:51.185Z,61.26
2022-09-03T23:48:27.867Z,62.07
2022-09-03T23:51:10.872Z,61.60
2022-09-03T23:53:56.062Z,61.87
2022-09-03T23:56:37.549Z,61.32
2022-09-03T23:59:11.122Z,61.53
